sensor_id;sensor_type;location;lat;lon;timestamp;P1;durP1;ratioP1;P2;durP2;ratioP2
70150;SDS011;57517;43.562;19.540;2023-02-18T00:00:39;41.60;;;27.27;;
70150;SDS011;57517;43.562;19.540;2023-02-18T00:03:05;37.10;;;25.40;;
70150;SDS011;57517;43.562;19.540;2023-02-18T00:05:30;46.70;;;31.70;;
70150;SDS011;57517;43.562;19.540;2023-02-18T00:07:56;42.22;;;29.17;;
70150;SDS011;57517;43.562;19.540;2023-02-18T00:10:22;36.67;;;26.33;;
70150;SDS011;57517;43.562;19.540;2023-02-18T00:12:47;35.38;;;25.95;;
70150;SDS011;57517;43.562;19.540;2023-02-18T00:15:13;40.78;;;28.25;;
70150;SDS011;57517;43.562;19.540;2023-02-18T00:17:39;41.20;;;28.73;;
70150;SDS011;57517;43.562;19.540;2023-02-18T00:20:05;47.33;;;30.08;;
70150;SDS011;57517;43.562;19.540;2023-02-18T00:22:32;44.88;;;31.55;;
70150;SDS011;57517;43.562;19.540;2023-02-18T00:24:58;47.30;;;30.38;;
70150;SDS011;57517;43.562;19.540;2023-02-18T00:27:23;39.28;;;26.70;;
70150;SDS011;57517;43.562;19.540;2023-02-18T00:29:49;35.42;;;28.50;;
70150;SDS011;57517;43.562;19.540;2023-02-18T00:32:15;38.63;;;26.83;;
70150;SDS011;57517;43.562;19.540;2023-02-18T00:34:40;38.67;;;27.33;;
70150;SDS011;57517;43.562;19.540;2023-02-18T00:37:06;39.53;;;25.98;;
70150;SDS011;57517;43.562;19.540;2023-02-18T00:39:32;31.35;;;22.55;;
70150;SDS011;57517;43.562;19.540;2023-02-18T00:41:57;34.85;;;24.02;;
70150;SDS011;57517;43.562;19.540;2023-02-18T00:44:23;34.67;;;25.05;;
70150;SDS011;57517;43.562;19.540;2023-02-18T00:46:49;39.40;;;27.90;;
70150;SDS011;57517;43.562;19.540;2023-02-18T00:49:14;42.65;;;28.17;;
70150;SDS011;57517;43.562;19.540;2023-02-18T00:51:41;44.65;;;27.13;;
70150;SDS011;57517;43.562;19.540;2023-02-18T00:54:07;38.22;;;24.27;;
70150;SDS011;57517;43.562;19.540;2023-02-18T00:56:33;35.10;;;23.88;;
70150;SDS011;57517;43.562;19.540;2023-02-18T00:58:58;34.13;;;24.38;;
70150;SDS011;57517;43.562;19.540;2023-02-18T01:01:24;32.67;;;22.83;;
70150;SDS011;57517;43.562;19.540;2023-02-18T01:03:51;37.05;;;24.88;;
70150;SDS011;57517;43.562;19.540;2023-02-18T01:06:17;38.85;;;25.77;;
70150;SDS011;57517;43.562;19.540;2023-02-18T01:08:43;31.05;;;22.42;;
70150;SDS011;57517;43.562;19.540;2023-02-18T01:11:09;31.45;;;22.58;;
70150;SDS011;57517;43.562;19.540;2023-02-18T01:13:37;34.90;;;24.63;;
70150;SDS011;57517;43.562;19.540;2023-02-18T01:16:03;32.47;;;23.52;;
70150;SDS011;57517;43.562;19.540;2023-02-18T01:18:29;39.92;;;25.88;;
70150;SDS011;57517;43.562;19.540;2023-02-18T01:20:55;36.00;;;25.33;;
70150;SDS011;57517;43.562;19.540;2023-02-18T01:23:21;35.38;;;25.05;;
70150;SDS011;57517;43.562;19.540;2023-02-18T01:25:47;46.22;;;33.53;;
70150;SDS011;57517;43.562;19.540;2023-02-18T01:28:13;52.60;;;35.42;;
70150;SDS011;57517;43.562;19.540;2023-02-18T01:30:39;51.13;;;35.53;;
70150;SDS011;57517;43.562;19.540;2023-02-18T01:33:06;52.30;;;35.33;;
70150;SDS011;57517;43.562;19.540;2023-02-18T01:35:32;44.72;;;32.83;;
70150;SDS011;57517;43.562;19.540;2023-02-18T01:37:58;46.53;;;33.28;;
70150;SDS011;57517;43.562;19.540;2023-02-18T01:40:25;46.10;;;31.10;;
70150;SDS011;57517;43.562;19.540;2023-02-18T01:42:52;39.38;;;29.10;;
70150;SDS011;57517;43.562;19.540;2023-02-18T01:48:11;32.72;;;20.33;;
70150;SDS011;57517;43.562;19.540;2023-02-18T01:50:52;26.15;;;18.23;;
70150;SDS011;57517;43.562;19.540;2023-02-18T01:53:23;30.60;;;19.38;;
70150;SDS011;57517;43.562;19.540;2023-02-18T01:55:53;26.60;;;19.55;;
70150;SDS011;57517;43.562;19.540;2023-02-18T01:58:19;29.20;;;18.23;;
70150;SDS011;57517;43.562;19.540;2023-02-18T02:00:45;32.42;;;21.65;;
70150;SDS011;57517;43.562;19.540;2023-02-18T02:03:11;28.10;;;20.27;;
70150;SDS011;57517;43.562;19.540;2023-02-18T02:05:37;27.10;;;20.30;;
70150;SDS011;57517;43.562;19.540;2023-02-18T02:08:02;30.10;;;23.25;;
70150;SDS011;57517;43.562;19.540;2023-02-18T02:10:43;30.17;;;22.02;;
70150;SDS011;57517;43.562;19.540;2023-02-18T02:13:41;30.95;;;23.42;;
70150;SDS011;57517;43.562;19.540;2023-02-18T02:27:34;41.08;;;27.67;;
70150;SDS011;57517;43.562;19.540;2023-02-18T02:36:15;34.25;;;24.90;;
70150;SDS011;57517;43.562;19.540;2023-02-18T02:41:51;37.47;;;26.40;;
70150;SDS011;57517;43.562;19.540;2023-02-18T02:44:31;37.35;;;28.48;;
70150;SDS011;57517;43.562;19.540;2023-02-18T02:47:31;31.50;;;23.00;;
70150;SDS011;57517;43.562;19.540;2023-02-18T02:50:35;35.63;;;24.02;;
70150;SDS011;57517;43.562;19.540;2023-02-18T02:53:10;28.63;;;21.10;;
70150;SDS011;57517;43.562;19.540;2023-02-18T02:55:41;28.42;;;21.95;;
70150;SDS011;57517;43.562;19.540;2023-02-18T02:58:08;27.13;;;19.95;;
70150;SDS011;57517;43.562;19.540;2023-02-18T03:00:47;25.85;;;19.40;;
70150;SDS011;57517;43.562;19.540;2023-02-18T03:08:51;30.30;;;22.65;;
70150;SDS011;57517;43.562;19.540;2023-02-18T03:11:41;32.33;;;21.17;;
70150;SDS011;57517;43.562;19.540;2023-02-18T03:17:24;31.35;;;21.95;;
70150;SDS011;57517;43.562;19.540;2023-02-18T03:20:07;32.78;;;21.85;;
70150;SDS011;57517;43.562;19.540;2023-02-18T03:23:03;38.00;;;25.85;;
70150;SDS011;57517;43.562;19.540;2023-02-18T03:25:33;38.65;;;26.33;;
70150;SDS011;57517;43.562;19.540;2023-02-18T03:28:02;34.78;;;26.13;;
70150;SDS011;57517;43.562;19.540;2023-02-18T03:30:52;36.75;;;25.30;;
70150;SDS011;57517;43.562;19.540;2023-02-18T03:33:28;35.72;;;24.63;;
70150;SDS011;57517;43.562;19.540;2023-02-18T03:35:59;35.60;;;27.98;;
70150;SDS011;57517;43.562;19.540;2023-02-18T03:38:31;30.02;;;21.88;;
70150;SDS011;57517;43.562;19.540;2023-02-18T03:40:58;29.60;;;20.15;;
70150;SDS011;57517;43.562;19.540;2023-02-18T03:43:24;27.60;;;18.40;;
70150;SDS011;57517;43.562;19.540;2023-02-18T03:45:49;33.60;;;22.73;;
70150;SDS011;57517;43.562;19.540;2023-02-18T03:48:16;31.98;;;21.52;;
70150;SDS011;57517;43.562;19.540;2023-02-18T03:50:41;27.98;;;20.55;;
70150;SDS011;57517;43.562;19.540;2023-02-18T03:53:07;28.13;;;19.20;;
70150;SDS011;57517;43.562;19.540;2023-02-18T03:55:33;28.83;;;19.00;;
70150;SDS011;57517;43.562;19.540;2023-02-18T03:57:58;29.05;;;20.40;;
70150;SDS011;57517;43.562;19.540;2023-02-18T04:00:24;31.23;;;22.20;;
70150;SDS011;57517;43.562;19.540;2023-02-18T04:02:50;32.40;;;24.08;;
70150;SDS011;57517;43.562;19.540;2023-02-18T04:05:16;36.20;;;25.98;;
70150;SDS011;57517;43.562;19.540;2023-02-18T04:07:41;30.20;;;21.60;;
70150;SDS011;57517;43.562;19.540;2023-02-18T04:10:07;28.73;;;20.00;;
70150;SDS011;57517;43.562;19.540;2023-02-18T04:12:34;26.00;;;18.98;;
70150;SDS011;57517;43.562;19.540;2023-02-18T04:14:59;26.23;;;17.55;;
70150;SDS011;57517;43.562;19.540;2023-02-18T04:17:25;32.03;;;22.83;;
70150;SDS011;57517;43.562;19.540;2023-02-18T04:19:51;23.42;;;17.73;;
70150;SDS011;57517;43.562;19.540;2023-02-18T04:22:17;23.42;;;18.35;;
70150;SDS011;57517;43.562;19.540;2023-02-18T04:24:42;27.98;;;20.20;;
70150;SDS011;57517;43.562;19.540;2023-02-18T04:27:08;23.40;;;16.88;;
70150;SDS011;57517;43.562;19.540;2023-02-18T04:29:34;27.65;;;18.27;;
70150;SDS011;57517;43.562;19.540;2023-02-18T04:31:59;27.20;;;20.02;;
70150;SDS011;57517;43.562;19.540;2023-02-18T04:34:25;25.52;;;18.42;;
70150;SDS011;57517;43.562;19.540;2023-02-18T04:36:51;27.23;;;19.50;;
70150;SDS011;57517;43.562;19.540;2023-02-18T04:39:17;29.63;;;20.42;;
70150;SDS011;57517;43.562;19.540;2023-02-18T04:41:42;25.85;;;19.30;;
70150;SDS011;57517;43.562;19.540;2023-02-18T04:44:08;33.83;;;24.92;;
70150;SDS011;57517;43.562;19.540;2023-02-18T04:46:34;35.10;;;22.67;;
70150;SDS011;57517;43.562;19.540;2023-02-18T04:49:00;33.70;;;23.55;;
70150;SDS011;57517;43.562;19.540;2023-02-18T04:51:26;33.03;;;23.13;;
70150;SDS011;57517;43.562;19.540;2023-02-18T04:53:52;31.20;;;22.40;;
70150;SDS011;57517;43.562;19.540;2023-02-18T04:56:18;31.15;;;21.85;;
70150;SDS011;57517;43.562;19.540;2023-02-18T04:58:44;37.63;;;28.35;;
70150;SDS011;57517;43.562;19.540;2023-02-18T05:01:10;35.70;;;25.30;;
70150;SDS011;57517;43.562;19.540;2023-02-18T05:03:37;32.00;;;21.50;;
70150;SDS011;57517;43.562;19.540;2023-02-18T05:06:02;28.35;;;19.60;;
70150;SDS011;57517;43.562;19.540;2023-02-18T05:08:29;29.20;;;20.20;;
70150;SDS011;57517;43.562;19.540;2023-02-18T05:10:54;33.47;;;20.35;;
70150;SDS011;57517;43.562;19.540;2023-02-18T05:13:20;27.75;;;20.10;;
70150;SDS011;57517;43.562;19.540;2023-02-18T05:15:47;27.25;;;19.08;;
70150;SDS011;57517;43.562;19.540;2023-02-18T05:18:13;29.42;;;20.02;;
70150;SDS011;57517;43.562;19.540;2023-02-18T05:20:38;26.10;;;19.85;;
70150;SDS011;57517;43.562;19.540;2023-02-18T05:23:04;36.20;;;24.67;;
70150;SDS011;57517;43.562;19.540;2023-02-18T05:25:30;41.10;;;28.00;;
70150;SDS011;57517;43.562;19.540;2023-02-18T05:27:55;39.08;;;28.63;;
70150;SDS011;57517;43.562;19.540;2023-02-18T05:30:21;48.45;;;34.70;;
70150;SDS011;57517;43.562;19.540;2023-02-18T05:32:47;53.70;;;40.00;;
70150;SDS011;57517;43.562;19.540;2023-02-18T05:35:13;58.58;;;39.95;;
70150;SDS011;57517;43.562;19.540;2023-02-18T05:37:38;45.40;;;31.38;;
70150;SDS011;57517;43.562;19.540;2023-02-18T05:40:04;38.28;;;27.02;;
70150;SDS011;57517;43.562;19.540;2023-02-18T05:42:30;33.10;;;22.20;;
70150;SDS011;57517;43.562;19.540;2023-02-18T05:44:57;29.33;;;22.13;;
70150;SDS011;57517;43.562;19.540;2023-02-18T05:47:23;31.38;;;22.55;;
70150;SDS011;57517;43.562;19.540;2023-02-18T05:49:49;26.83;;;20.63;;
70150;SDS011;57517;43.562;19.540;2023-02-18T05:52:15;29.85;;;20.60;;
70150;SDS011;57517;43.562;19.540;2023-02-18T05:54:41;25.65;;;20.15;;
70150;SDS011;57517;43.562;19.540;2023-02-18T05:57:09;31.17;;;21.83;;
70150;SDS011;57517;43.562;19.540;2023-02-18T05:59:37;33.13;;;24.75;;
70150;SDS011;57517;43.562;19.540;2023-02-18T06:02:02;34.25;;;24.02;;
70150;SDS011;57517;43.562;19.540;2023-02-18T06:04:28;29.58;;;22.83;;
70150;SDS011;57517;43.562;19.540;2023-02-18T06:06:54;32.90;;;21.92;;
70150;SDS011;57517;43.562;19.540;2023-02-18T06:09:20;31.73;;;22.27;;
70150;SDS011;57517;43.562;19.540;2023-02-18T06:11:46;29.90;;;21.63;;
70150;SDS011;57517;43.562;19.540;2023-02-18T06:14:12;28.38;;;21.65;;
70150;SDS011;57517;43.562;19.540;2023-02-18T06:16:37;38.67;;;25.95;;
70150;SDS011;57517;43.562;19.540;2023-02-18T06:19:03;39.17;;;28.60;;
70150;SDS011;57517;43.562;19.540;2023-02-18T06:21:29;35.15;;;27.35;;
70150;SDS011;57517;43.562;19.540;2023-02-18T06:23:55;37.47;;;27.65;;
70150;SDS011;57517;43.562;19.540;2023-02-18T06:26:20;36.88;;;27.38;;
70150;SDS011;57517;43.562;19.540;2023-02-18T06:28:46;36.28;;;27.40;;
70150;SDS011;57517;43.562;19.540;2023-02-18T06:31:12;40.88;;;29.33;;
70150;SDS011;57517;43.562;19.540;2023-02-18T06:33:37;42.85;;;30.67;;
70150;SDS011;57517;43.562;19.540;2023-02-18T06:36:04;35.38;;;28.25;;
70150;SDS011;57517;43.562;19.540;2023-02-18T06:38:34;42.22;;;31.77;;
70150;SDS011;57517;43.562;19.540;2023-02-18T06:41:00;39.83;;;29.63;;
70150;SDS011;57517;43.562;19.540;2023-02-18T06:43:26;84.63;;;59.28;;
70150;SDS011;57517;43.562;19.540;2023-02-18T06:45:52;74.95;;;56.83;;
70150;SDS011;57517;43.562;19.540;2023-02-18T06:48:17;89.30;;;68.75;;
70150;SDS011;57517;43.562;19.540;2023-02-18T06:50:44;97.47;;;72.10;;
70150;SDS011;57517;43.562;19.540;2023-02-18T06:53:10;67.90;;;48.67;;
70150;SDS011;57517;43.562;19.540;2023-02-18T06:55:37;56.17;;;45.92;;
70150;SDS011;57517;43.562;19.540;2023-02-18T06:58:03;53.70;;;39.60;;
70150;SDS011;57517;43.562;19.540;2023-02-18T07:00:29;53.95;;;41.42;;
70150;SDS011;57517;43.562;19.540;2023-02-18T07:02:55;60.72;;;44.95;;
70150;SDS011;57517;43.562;19.540;2023-02-18T07:05:21;65.07;;;46.17;;
70150;SDS011;57517;43.562;19.540;2023-02-18T07:07:46;79.53;;;60.28;;
70150;SDS011;57517;43.562;19.540;2023-02-18T07:10:12;92.88;;;70.10;;
70150;SDS011;57517;43.562;19.540;2023-02-18T07:12:38;75.82;;;61.10;;
70150;SDS011;57517;43.562;19.540;2023-02-18T07:15:03;79.10;;;62.60;;
70150;SDS011;57517;43.562;19.540;2023-02-18T07:17:29;70.00;;;57.65;;
70150;SDS011;57517;43.562;19.540;2023-02-18T07:19:55;72.28;;;57.25;;
70150;SDS011;57517;43.562;19.540;2023-02-18T07:22:21;79.40;;;60.92;;
70150;SDS011;57517;43.562;19.540;2023-02-18T07:24:53;84.03;;;64.85;;
70150;SDS011;57517;43.562;19.540;2023-02-18T07:27:19;89.10;;;61.80;;
70150;SDS011;57517;43.562;19.540;2023-02-18T07:29:46;92.97;;;66.38;;
70150;SDS011;57517;43.562;19.540;2023-02-18T07:32:12;69.00;;;54.63;;
70150;SDS011;57517;43.562;19.540;2023-02-18T07:34:39;69.32;;;52.95;;
70150;SDS011;57517;43.562;19.540;2023-02-18T07:37:05;70.07;;;56.47;;
70150;SDS011;57517;43.562;19.540;2023-02-18T07:39:38;75.25;;;62.20;;
70150;SDS011;57517;43.562;19.540;2023-02-18T07:42:04;76.65;;;61.60;;
70150;SDS011;57517;43.562;19.540;2023-02-18T07:44:30;91.28;;;73.15;;
70150;SDS011;57517;43.562;19.540;2023-02-18T07:46:55;78.63;;;63.47;;
70150;SDS011;57517;43.562;19.540;2023-02-18T07:49:21;75.65;;;59.97;;
70150;SDS011;57517;43.562;19.540;2023-02-18T07:51:48;71.63;;;54.35;;
70150;SDS011;57517;43.562;19.540;2023-02-18T07:54:14;67.55;;;57.78;;
70150;SDS011;57517;43.562;19.540;2023-02-18T07:56:40;80.43;;;65.03;;
70150;SDS011;57517;43.562;19.540;2023-02-18T07:59:07;77.43;;;62.00;;
70150;SDS011;57517;43.562;19.540;2023-02-18T08:01:33;68.68;;;53.35;;
70150;SDS011;57517;43.562;19.540;2023-02-18T08:03:59;67.82;;;53.20;;
70150;SDS011;57517;43.562;19.540;2023-02-18T08:06:26;57.75;;;50.00;;
70150;SDS011;57517;43.562;19.540;2023-02-18T08:08:58;66.13;;;51.90;;
70150;SDS011;57517;43.562;19.540;2023-02-18T08:11:24;98.47;;;80.85;;
70150;SDS011;57517;43.562;19.540;2023-02-18T08:13:50;98.15;;;77.03;;
70150;SDS011;57517;43.562;19.540;2023-02-18T08:16:16;98.95;;;82.97;;
70150;SDS011;57517;43.562;19.540;2023-02-18T08:18:43;67.47;;;53.72;;
70150;SDS011;57517;43.562;19.540;2023-02-18T08:21:09;62.65;;;51.15;;
70150;SDS011;57517;43.562;19.540;2023-02-18T08:23:35;195.80;;;157.27;;
70150;SDS011;57517;43.562;19.540;2023-02-18T08:26:01;375.17;;;282.60;;
70150;SDS011;57517;43.562;19.540;2023-02-18T08:28:27;319.73;;;234.88;;
70150;SDS011;57517;43.562;19.540;2023-02-18T08:30:53;119.35;;;90.95;;
70150;SDS011;57517;43.562;19.540;2023-02-18T08:33:19;78.32;;;61.47;;
70150;SDS011;57517;43.562;19.540;2023-02-18T08:35:46;59.33;;;48.83;;
70150;SDS011;57517;43.562;19.540;2023-02-18T08:38:14;52.42;;;44.83;;
70150;SDS011;57517;43.562;19.540;2023-02-18T08:40:40;70.30;;;59.53;;
70150;SDS011;57517;43.562;19.540;2023-02-18T08:43:06;83.25;;;69.20;;
70150;SDS011;57517;43.562;19.540;2023-02-18T08:45:32;60.95;;;50.33;;
70150;SDS011;57517;43.562;19.540;2023-02-18T08:47:58;50.30;;;41.75;;
70150;SDS011;57517;43.562;19.540;2023-02-18T08:50:24;56.97;;;45.55;;
70150;SDS011;57517;43.562;19.540;2023-02-18T08:52:53;66.50;;;54.28;;
70150;SDS011;57517;43.562;19.540;2023-02-18T08:55:20;50.60;;;42.95;;
70150;SDS011;57517;43.562;19.540;2023-02-18T08:57:46;41.67;;;36.95;;
70150;SDS011;57517;43.562;19.540;2023-02-18T09:00:13;42.80;;;37.03;;
70150;SDS011;57517;43.562;19.540;2023-02-18T09:02:40;52.67;;;45.70;;
70150;SDS011;57517;43.562;19.540;2023-02-18T09:05:06;46.00;;;38.30;;
70150;SDS011;57517;43.562;19.540;2023-02-18T09:07:33;44.65;;;39.78;;
70150;SDS011;57517;43.562;19.540;2023-02-18T09:09:59;49.88;;;43.40;;
70150;SDS011;57517;43.562;19.540;2023-02-18T09:12:25;53.20;;;46.60;;
70150;SDS011;57517;43.562;19.540;2023-02-18T09:14:52;49.90;;;44.53;;
70150;SDS011;57517;43.562;19.540;2023-02-18T09:17:17;51.83;;;43.05;;
70150;SDS011;57517;43.562;19.540;2023-02-18T09:19:43;58.97;;;50.97;;
70150;SDS011;57517;43.562;19.540;2023-02-18T09:22:09;52.95;;;45.85;;
70150;SDS011;57517;43.562;19.540;2023-02-18T09:24:38;49.88;;;44.55;;
70150;SDS011;57517;43.562;19.540;2023-02-18T09:27:05;55.63;;;49.53;;
70150;SDS011;57517;43.562;19.540;2023-02-18T09:29:32;47.65;;;38.88;;
70150;SDS011;57517;43.562;19.540;2023-02-18T09:32:01;58.08;;;48.42;;
70150;SDS011;57517;43.562;19.540;2023-02-18T09:34:27;39.00;;;33.95;;
70150;SDS011;57517;43.562;19.540;2023-02-18T09:36:53;37.42;;;33.33;;
70150;SDS011;57517;43.562;19.540;2023-02-18T09:39:19;40.03;;;33.17;;
70150;SDS011;57517;43.562;19.540;2023-02-18T09:41:52;48.15;;;41.83;;
70150;SDS011;57517;43.562;19.540;2023-02-18T09:46:54;58.10;;;49.30;;
70150;SDS011;57517;43.562;19.540;2023-02-18T09:49:39;66.50;;;51.83;;
70150;SDS011;57517;43.562;19.540;2023-02-18T09:54:48;36.33;;;32.42;;
70150;SDS011;57517;43.562;19.540;2023-02-18T09:57:27;59.67;;;47.13;;
70150;SDS011;57517;43.562;19.540;2023-02-18T10:00:06;47.60;;;37.30;;
70150;SDS011;57517;43.562;19.540;2023-02-18T10:02:41;40.50;;;33.38;;
70150;SDS011;57517;43.562;19.540;2023-02-18T10:05:35;44.13;;;37.53;;
70150;SDS011;57517;43.562;19.540;2023-02-18T10:08:05;38.33;;;31.70;;
70150;SDS011;57517;43.562;19.540;2023-02-18T10:10:41;37.03;;;32.33;;
70150;SDS011;57517;43.562;19.540;2023-02-18T10:13:12;38.40;;;34.15;;
70150;SDS011;57517;43.562;19.540;2023-02-18T10:15:40;60.83;;;50.20;;
70150;SDS011;57517;43.562;19.540;2023-02-18T10:18:16;55.67;;;47.17;;
70150;SDS011;57517;43.562;19.540;2023-02-18T10:20:56;51.40;;;43.25;;
70150;SDS011;57517;43.562;19.540;2023-02-18T10:23:30;46.72;;;41.13;;
70150;SDS011;57517;43.562;19.540;2023-02-18T10:26:00;46.47;;;38.35;;
70150;SDS011;57517;43.562;19.540;2023-02-18T10:28:30;40.08;;;35.10;;
70150;SDS011;57517;43.562;19.540;2023-02-18T10:31:01;38.65;;;30.65;;
70150;SDS011;57517;43.562;19.540;2023-02-18T10:36:32;35.55;;;27.95;;
70150;SDS011;57517;43.562;19.540;2023-02-18T10:42:00;35.50;;;27.08;;
70150;SDS011;57517;43.562;19.540;2023-02-18T10:50:00;34.95;;;29.77;;
70150;SDS011;57517;43.562;19.540;2023-02-18T10:52:33;31.83;;;28.08;;
70150;SDS011;57517;43.562;19.540;2023-02-18T10:55:05;30.60;;;26.63;;
70150;SDS011;57517;43.562;19.540;2023-02-18T10:57:33;30.58;;;25.63;;
70150;SDS011;57517;43.562;19.540;2023-02-18T11:02:41;27.60;;;22.65;;
70150;SDS011;57517;43.562;19.540;2023-02-18T11:05:26;27.40;;;21.20;;
70150;SDS011;57517;43.562;19.540;2023-02-18T11:07:53;30.08;;;22.35;;
70150;SDS011;57517;43.562;19.540;2023-02-18T11:10:26;47.67;;;27.20;;
70150;SDS011;57517;43.562;19.540;2023-02-18T11:13:00;26.88;;;19.80;;
70150;SDS011;57517;43.562;19.540;2023-02-18T11:15:28;28.15;;;21.15;;
70150;SDS011;57517;43.562;19.540;2023-02-18T11:17:56;35.38;;;26.20;;
70150;SDS011;57517;43.562;19.540;2023-02-18T11:20:37;30.02;;;22.80;;
70150;SDS011;57517;43.562;19.540;2023-02-18T11:26:03;28.23;;;21.05;;
70150;SDS011;57517;43.562;19.540;2023-02-18T11:28:42;29.02;;;24.63;;
70150;SDS011;57517;43.562;19.540;2023-02-18T11:31:35;36.28;;;25.63;;
70150;SDS011;57517;43.562;19.540;2023-02-18T11:34:09;38.35;;;26.42;;
70150;SDS011;57517;43.562;19.540;2023-02-18T11:36:40;26.65;;;21.85;;
70150;SDS011;57517;43.562;19.540;2023-02-18T11:39:19;28.05;;;21.92;;
70150;SDS011;57517;43.562;19.540;2023-02-18T11:41:53;30.85;;;24.20;;
70150;SDS011;57517;43.562;19.540;2023-02-18T11:44:31;31.60;;;22.85;;
70150;SDS011;57517;43.562;19.540;2023-02-18T11:49:37;26.67;;;22.00;;
70150;SDS011;57517;43.562;19.540;2023-02-18T11:54:36;31.38;;;24.30;;
70150;SDS011;57517;43.562;19.540;2023-02-18T11:57:04;41.28;;;27.95;;
70150;SDS011;57517;43.562;19.540;2023-02-18T11:59:34;26.70;;;21.23;;
70150;SDS011;57517;43.562;19.540;2023-02-18T12:02:12;31.02;;;21.08;;
70150;SDS011;57517;43.562;19.540;2023-02-18T12:05:11;28.35;;;21.02;;
70150;SDS011;57517;43.562;19.540;2023-02-18T12:08:09;29.98;;;21.25;;
70150;SDS011;57517;43.562;19.540;2023-02-18T12:10:39;30.48;;;21.70;;
70150;SDS011;57517;43.562;19.540;2023-02-18T12:15:51;23.92;;;17.48;;
70150;SDS011;57517;43.562;19.540;2023-02-18T12:21:10;25.48;;;19.63;;
70150;SDS011;57517;43.562;19.540;2023-02-18T12:26:23;27.33;;;21.27;;
70150;SDS011;57517;43.562;19.540;2023-02-18T12:34:42;30.77;;;21.35;;
70150;SDS011;57517;43.562;19.540;2023-02-18T12:37:17;23.52;;;18.52;;
70150;SDS011;57517;43.562;19.540;2023-02-18T12:50:39;30.05;;;22.70;;
70150;SDS011;57517;43.562;19.540;2023-02-18T13:01:38;28.92;;;21.90;;
70150;SDS011;57517;43.562;19.540;2023-02-18T13:07:29;25.35;;;15.77;;
70150;SDS011;57517;43.562;19.540;2023-02-18T13:10:11;25.00;;;17.50;;
70150;SDS011;57517;43.562;19.540;2023-02-18T13:13:07;25.55;;;20.35;;
70150;SDS011;57517;43.562;19.540;2023-02-18T13:15:50;24.63;;;19.73;;
70150;SDS011;57517;43.562;19.540;2023-02-18T13:18:28;29.60;;;23.33;;
70150;SDS011;57517;43.562;19.540;2023-02-18T13:21:19;30.98;;;24.13;;
70150;SDS011;57517;43.562;19.540;2023-02-18T13:23:47;29.70;;;21.80;;
70150;SDS011;57517;43.562;19.540;2023-02-18T13:26:28;24.92;;;21.70;;
70150;SDS011;57517;43.562;19.540;2023-02-18T13:34:55;27.00;;;15.93;;
70150;SDS011;57517;43.562;19.540;2023-02-18T13:40:27;31.58;;;19.95;;
70150;SDS011;57517;43.562;19.540;2023-02-18T13:43:15;30.52;;;22.00;;
70150;SDS011;57517;43.562;19.540;2023-02-18T13:56:30;24.75;;;19.13;;
70150;SDS011;57517;43.562;19.540;2023-02-18T14:01:42;21.80;;;17.95;;
70150;SDS011;57517;43.562;19.540;2023-02-18T14:10:28;35.63;;;23.45;;
70150;SDS011;57517;43.562;19.540;2023-02-18T14:17:55;32.72;;;26.00;;
70150;SDS011;57517;43.562;19.540;2023-02-18T14:26:16;37.97;;;27.85;;
70150;SDS011;57517;43.562;19.540;2023-02-18T14:42:06;25.02;;;19.35;;
70150;SDS011;57517;43.562;19.540;2023-02-18T14:50:36;62.83;;;47.05;;
70150;SDS011;57517;43.562;19.540;2023-02-18T14:53:06;63.42;;;43.55;;
70150;SDS011;57517;43.562;19.540;2023-02-18T14:55:43;57.15;;;42.88;;
70150;SDS011;57517;43.562;19.540;2023-02-18T14:58:31;61.92;;;45.80;;
70150;SDS011;57517;43.562;19.540;2023-02-18T15:01:34;87.90;;;65.82;;
70150;SDS011;57517;43.562;19.540;2023-02-18T15:03:54;110.53;;;81.40;;
70150;SDS011;57517;43.562;19.540;2023-02-18T15:06:38;104.88;;;84.55;;
70150;SDS011;57517;43.562;19.540;2023-02-18T15:09:17;114.68;;;91.57;;
70150;SDS011;57517;43.562;19.540;2023-02-18T15:16:50;118.95;;;91.32;;
70150;SDS011;57517;43.562;19.540;2023-02-18T15:19:23;117.38;;;96.30;;
70150;SDS011;57517;43.562;19.540;2023-02-18T15:21:52;110.43;;;91.28;;
70150;SDS011;57517;43.562;19.540;2023-02-18T15:24:22;97.43;;;83.18;;
70150;SDS011;57517;43.562;19.540;2023-02-18T15:26:51;82.22;;;65.80;;
70150;SDS011;57517;43.562;19.540;2023-02-18T15:29:21;71.95;;;53.03;;
70150;SDS011;57517;43.562;19.540;2023-02-18T15:31:52;67.25;;;49.35;;
70150;SDS011;57517;43.562;19.540;2023-02-18T15:36:53;72.43;;;48.03;;
70150;SDS011;57517;43.562;19.540;2023-02-18T15:39:20;61.30;;;46.35;;
70150;SDS011;57517;43.562;19.540;2023-02-18T15:41:50;55.78;;;38.72;;
70150;SDS011;57517;43.562;19.540;2023-02-18T15:44:19;57.90;;;41.50;;
70150;SDS011;57517;43.562;19.540;2023-02-18T15:46:48;67.22;;;45.92;;
70150;SDS011;57517;43.562;19.540;2023-02-18T15:49:14;53.90;;;41.50;;
70150;SDS011;57517;43.562;19.540;2023-02-18T15:51:43;30.60;;;22.77;;
70150;SDS011;57517;43.562;19.540;2023-02-18T15:54:11;26.02;;;18.10;;
70150;SDS011;57517;43.562;19.540;2023-02-18T15:56:43;25.02;;;18.67;;
70150;SDS011;57517;43.562;19.540;2023-02-18T15:59:17;35.83;;;27.20;;
70150;SDS011;57517;43.562;19.540;2023-02-18T16:01:47;42.85;;;30.98;;
70150;SDS011;57517;43.562;19.540;2023-02-18T16:04:15;37.05;;;29.42;;
70150;SDS011;57517;43.562;19.540;2023-02-18T16:06:45;41.38;;;32.05;;
70150;SDS011;57517;43.562;19.540;2023-02-18T16:09:24;51.00;;;37.83;;
70150;SDS011;57517;43.562;19.540;2023-02-18T16:12:01;52.22;;;41.85;;
70150;SDS011;57517;43.562;19.540;2023-02-18T16:14:30;45.42;;;35.70;;
70150;SDS011;57517;43.562;19.540;2023-02-18T16:19:55;42.05;;;29.88;;
70150;SDS011;57517;43.562;19.540;2023-02-18T16:22:43;39.58;;;24.58;;
70150;SDS011;57517;43.562;19.540;2023-02-18T16:27:49;28.00;;;20.17;;
70150;SDS011;57517;43.562;19.540;2023-02-18T16:30:19;56.33;;;45.22;;
70150;SDS011;57517;43.562;19.540;2023-02-18T16:32:50;46.17;;;34.72;;
70150;SDS011;57517;43.562;19.540;2023-02-18T16:35:16;39.03;;;28.33;;
70150;SDS011;57517;43.562;19.540;2023-02-18T16:37:44;44.92;;;31.27;;
70150;SDS011;57517;43.562;19.540;2023-02-18T16:42:59;49.60;;;37.90;;
70150;SDS011;57517;43.562;19.540;2023-02-18T16:45:47;55.22;;;39.13;;
70150;SDS011;57517;43.562;19.540;2023-02-18T16:50:52;30.33;;;23.08;;
70150;SDS011;57517;43.562;19.540;2023-02-18T16:53:18;60.22;;;51.03;;
70150;SDS011;57517;43.562;19.540;2023-02-18T16:55:44;37.83;;;27.40;;
70150;SDS011;57517;43.562;19.540;2023-02-18T16:58:10;78.78;;;57.03;;
70150;SDS011;57517;43.562;19.540;2023-02-18T17:00:36;76.15;;;57.28;;
70150;SDS011;57517;43.562;19.540;2023-02-18T17:03:02;78.90;;;62.83;;
70150;SDS011;57517;43.562;19.540;2023-02-18T17:05:30;67.60;;;54.15;;
70150;SDS011;57517;43.562;19.540;2023-02-18T17:10:49;70.10;;;50.63;;
70150;SDS011;57517;43.562;19.540;2023-02-18T17:13:17;70.18;;;52.30;;
70150;SDS011;57517;43.562;19.540;2023-02-18T17:15:45;85.22;;;61.30;;
70150;SDS011;57517;43.562;19.540;2023-02-18T17:18:12;80.07;;;57.33;;